KIOB Airport (Mount Sterling-Montgomery County) Information

FAA: IOB - ICAO: KIOB

KIOB Airport Location

State Kentucky
County Montgomery
City Mount Sterling
KIOB Airport is 2 miles west of Mount Sterling, KY.
Latitude 38-03-29.3000N
Longitude 083-58-46.5000W
Elevation 1,019ft

KIOB Airport METARs

METAR KIOB 032315Z AUTO 24004KT 10SM CLR 13/07 A2996 RMK AO2 PWINO
Altimeter 29.96"
Temperature 13.0°C (55.4°F)
Wind 240° at 4KT
Clouds Skies are clear.
Visibility 10.0mi
Time observed: 2021-12-03T23:15:00Z

KIOB Airport Details

Status Operational
Activation November 1964
Ownership Public
Usage Public
Chart CINCINNATI
ATC on-site No
Beacon schedule sunset-sunrise
Beacon color clear green

KIOB Airport Contacts

Owner MT STERLING-MONTGOMERY COUNTY
Owner address 709 AIRPORT ROAD, MT. STERLING, KY 40353
Owner phone 859-498-1000
Manager BILLY HICKS
Manager address 989 MEDICAL PARK DRIVE, MAYSVILLE, KY 41056
Manager phone (606) 584-0124

KIOB Airport (Mount Sterling-Montgomery County) Radio Frequencies

KIOB (Airport) Radio Frequencies

UNICOM 122.8
Common traffic advisory frequency (CTAF) 122.8